ADDS METAR Data INFO
IDs: Format: Raw Decoded Include TAF

Data at: 2056 UTC 19 Jul 2018

KCRP 192051Z 15013KT 10SM FEW043 FEW250 33/27 A2989 RMK AO2 SLP119 T03330267 56015